createdAt,value
2023-05-17T00:00:03.475Z,100.00
2023-05-17T00:02:32.297Z,100.00
2023-05-17T00:04:59.059Z,100.00
2023-05-17T00:07:30.728Z,100.00
2023-05-17T00:09:57.194Z,100.00
2023-05-17T00:12:23.854Z,100.00
2023-05-17T00:15:03.387Z,100.00
2023-05-17T00:20:16.391Z,100.00
2023-05-17T00:22:47.197Z,100.00
2023-05-17T00:25:13.916Z,100.00
2023-05-17T00:27:41.852Z,100.00
2023-05-17T00:30:08.602Z,100.00
2023-05-17T00:32:34.998Z,100.00
2023-05-17T00:35:09.972Z,100.00
2023-05-17T00:37:36.402Z,100.00
2023-05-17T00:40:08.168Z,100.00
2023-05-17T00:42:37.337Z,100.00
2023-05-17T00:45:05.078Z,100.00
2023-05-17T00:47:41.720Z,100.00
2023-05-17T00:50:14.959Z,100.00
2023-05-17T00:52:41.520Z,100.00
2023-05-17T00:55:08.401Z,100.00
2023-05-17T00:57:39.293Z,100.00
2023-05-17T01:00:06.398Z,100.00
2023-05-17T01:02:34.998Z,100.00
2023-05-17T01:05:04.097Z,100.00
2023-05-17T01:07:34.061Z,100.00
2023-05-17T01:10:10.077Z,100.00
2023-05-17T01:12:58.360Z,100.00
2023-05-17T01:15:38.965Z,100.00
2023-05-17T01:18:40.890Z,100.00
2023-05-17T01:21:51.193Z,100.00
2023-05-17T01:24:53.287Z,100.00
2023-05-17T01:27:25.769Z,100.00
2023-05-17T01:29:55.864Z,100.00
2023-05-17T01:32:25.937Z,100.00
2023-05-17T01:34:58.262Z,100.00
2023-05-17T01:37:27.569Z,100.00
2023-05-17T01:39:54.074Z,100.00
2023-05-17T01:42:32.655Z,100.00
2023-05-17T01:45:41.903Z,100.00
2023-05-17T01:48:26.200Z,100.00
2023-05-17T01:50:58.128Z,100.00
2023-05-17T01:53:36.248Z,100.00
2023-05-17T01:56:20.137Z,100.00
2023-05-17T01:58:48.687Z,100.00
2023-05-17T02:01:21.373Z,100.00
2023-05-17T02:03:54.925Z,100.00
2023-05-17T02:06:24.106Z,100.00
2023-05-17T02:08:52.698Z,100.00
2023-05-17T02:11:26.014Z,100.00
2023-05-17T02:13:52.663Z,100.00
2023-05-17T02:16:21.853Z,100.00
2023-05-17T02:18:51.639Z,100.00
2023-05-17T02:24:05.391Z,100.00
2023-05-17T02:26:34.595Z,100.00
2023-05-17T02:29:01.110Z,100.00
2023-05-17T02:31:36.619Z,100.00
2023-05-17T02:34:03.314Z,100.00
2023-05-17T02:36:33.799Z,100.00
2023-05-17T02:39:03.675Z,100.00
2023-05-17T02:41:33.585Z,100.00
2023-05-17T02:44:02.561Z,100.00
2023-05-17T02:46:28.949Z,100.00
2023-05-17T02:48:58.227Z,100.00
2023-05-17T02:51:26.974Z,100.00
2023-05-17T02:53:53.399Z,100.00
2023-05-17T02:56:20.149Z,100.00
2023-05-17T02:58:55.534Z,100.00
2023-05-17T03:04:09.022Z,100.00
2023-05-17T03:06:38.574Z,100.00
2023-05-17T03:09:05.007Z,100.00
2023-05-17T03:11:31.769Z,100.00
2023-05-17T03:14:01.132Z,100.00
2023-05-17T03:16:27.521Z,100.00
2023-05-17T03:18:59.747Z,100.00
2023-05-17T03:21:29.853Z,100.00
2023-05-17T03:24:02.514Z,100.00
2023-05-17T03:26:33.478Z,100.00
2023-05-17T03:29:02.718Z,100.00
2023-05-17T03:31:32.148Z,100.00
2023-05-17T03:34:01.265Z,100.00
2023-05-17T03:36:27.734Z,100.00
2023-05-17T03:38:57.287Z,100.00
2023-05-17T03:41:35.667Z,100.00
2023-05-17T03:44:02.142Z,100.00
2023-05-17T03:46:34.468Z,100.00
2023-05-17T03:49:00.900Z,100.00
2023-05-17T03:51:27.441Z,100.00
2023-05-17T03:54:04.220Z,100.00
2023-05-17T03:56:31.656Z,100.00
2023-05-17T03:59:01.553Z,100.00
2023-05-17T04:01:27.985Z,100.00
2023-05-17T04:03:54.386Z,100.00
2023-05-17T04:06:30.840Z,100.00
2023-05-17T04:09:06.907Z,100.00
2023-05-17T04:11:34.233Z,100.00
2023-05-17T04:14:00.805Z,100.00
2023-05-17T04:16:36.979Z,100.00
2023-05-17T04:19:03.643Z,100.00
2023-05-17T04:21:32.970Z,100.00
2023-05-17T04:24:02.442Z,91.85
2023-05-17T04:26:30.953Z,84.75
2023-05-17T04:28:59.125Z,83.80
2023-05-17T04:31:25.505Z,79.68
2023-05-17T04:33:52.069Z,72.93
2023-05-17T04:36:28.425Z,69.20
2023-05-17T04:38:54.861Z,64.18
2023-05-17T04:41:21.525Z,62.38
2023-05-17T04:43:55.298Z,60.18
2023-05-17T04:46:22.652Z,57.74
2023-05-17T04:48:49.473Z,56.73
2023-05-17T04:51:15.975Z,54.43
2023-05-17T04:53:42.494Z,53.42
2023-05-17T04:56:11.780Z,51.40
2023-05-17T04:58:41.529Z,50.00
2023-05-17T05:01:10.418Z,49.28
2023-05-17T05:03:38.409Z,47.97
2023-05-17T05:06:04.877Z,46.19
2023-05-17T05:08:33.513Z,46.11
2023-05-17T05:11:02.850Z,44.52
2023-05-17T05:13:29.310Z,44.34
2023-05-17T05:15:55.706Z,42.68
2023-05-17T05:18:25.931Z,42.40
2023-05-17T05:20:52.551Z,42.18
2023-05-17T05:23:18.958Z,41.67
2023-05-17T05:25:51.149Z,41.63
2023-05-17T05:28:17.765Z,41.26
2023-05-17T05:30:44.748Z,39.55
2023-05-17T05:33:15.918Z,39.24
2023-05-17T05:35:46.284Z,39.44
2023-05-17T05:38:17.661Z,39.47
2023-05-17T05:40:46.977Z,38.32
2023-05-17T05:43:18.952Z,38.06
2023-05-17T05:45:48.279Z,37.77
2023-05-17T05:48:22.332Z,38.23
2023-05-17T05:50:51.889Z,37.92
2023-05-17T05:53:26.474Z,37.24
2023-05-17T05:55:52.948Z,38.16
2023-05-17T05:58:19.347Z,37.38
2023-05-17T06:00:51.077Z,40.53
2023-05-17T06:03:21.352Z,37.76
2023-05-17T06:05:51.152Z,38.75
2023-05-17T06:08:20.412Z,37.26
2023-05-17T06:10:46.882Z,40.36
2023-05-17T06:13:16.977Z,40.54
2023-05-17T06:15:43.357Z,43.22
2023-05-17T06:18:09.901Z,46.20
2023-05-17T06:20:39.058Z,46.74
2023-05-17T06:23:07.491Z,48.11
2023-05-17T06:25:33.907Z,47.68
2023-05-17T06:28:05.398Z,47.85
2023-05-17T06:30:32.270Z,48.25
2023-05-17T06:32:59.286Z,50.49
2023-05-17T06:35:33.024Z,51.53
2023-05-17T06:38:16.152Z,51.61
2023-05-17T06:40:42.566Z,52.71
2023-05-17T06:43:17.090Z,50.55
2023-05-17T06:45:43.507Z,50.86
2023-05-17T06:50:53.086Z,51.25
2023-05-17T06:53:19.821Z,52.42
2023-05-17T06:55:46.317Z,53.23
2023-05-17T06:58:12.858Z,53.45
2023-05-17T07:00:49.059Z,53.93
2023-05-17T07:03:15.697Z,55.39
2023-05-17T07:05:51.755Z,55.07
2023-05-17T07:08:18.235Z,56.02
2023-05-17T07:10:44.685Z,55.65
2023-05-17T07:13:11.110Z,55.82
2023-05-17T07:15:38.282Z,55.54
2023-05-17T07:18:07.138Z,56.02
2023-05-17T07:20:39.757Z,53.90
2023-05-17T07:23:06.153Z,54.70
2023-05-17T07:25:46.158Z,54.13
2023-05-17T07:28:24.403Z,52.46
2023-05-17T07:30:50.992Z,52.65
2023-05-17T07:33:23.294Z,52.00
2023-05-17T07:35:53.795Z,50.13
2023-05-17T07:38:24.762Z,50.42
2023-05-17T07:40:54.196Z,50.87
2023-05-17T07:43:24.529Z,50.81
2023-05-17T07:45:53.799Z,49.27
2023-05-17T07:48:20.410Z,49.01
2023-05-17T07:50:51.668Z,50.98
2023-05-17T07:53:21.347Z,50.08
2023-05-17T07:56:00.537Z,49.12
2023-05-17T07:58:27.027Z,49.88
2023-05-17T08:00:53.499Z,49.31
2023-05-17T08:03:19.968Z,49.77
2023-05-17T08:05:50.315Z,49.14
2023-05-17T08:08:16.975Z,50.32
2023-05-17T08:10:43.486Z,49.10
2023-05-17T08:13:09.894Z,49.60
2023-05-17T08:15:36.281Z,50.06
2023-05-17T08:18:11.290Z,50.98
2023-05-17T08:20:37.957Z,51.71
2023-05-17T08:23:10.258Z,50.40
2023-05-17T08:25:36.798Z,50.68
2023-05-17T08:28:03.662Z,50.30
2023-05-17T08:30:30.456Z,50.84
2023-05-17T08:32:59.307Z,48.31
2023-05-17T08:35:28.594Z,49.16
2023-05-17T08:37:58.592Z,50.39
2023-05-17T08:40:25.123Z,50.43
2023-05-17T08:42:52.619Z,51.43
2023-05-17T08:45:22.989Z,50.00
2023-05-17T08:47:51.225Z,48.85
2023-05-17T08:50:17.788Z,47.29
2023-05-17T08:52:54.837Z,46.70
2023-05-17T08:58:04.926Z,46.99
2023-05-17T09:00:36.695Z,48.46
2023-05-17T09:03:03.282Z,48.14
2023-05-17T09:05:33.271Z,47.39
2023-05-17T09:07:59.749Z,48.22
2023-05-17T09:10:26.565Z,48.96
2023-05-17T09:12:57.116Z,49.28
2023-05-17T09:15:27.111Z,50.05
2023-05-17T09:18:00.508Z,48.97
2023-05-17T09:20:38.201Z,47.93
2023-05-17T09:23:14.737Z,48.05
2023-05-17T09:25:50.743Z,47.64
2023-05-17T09:28:23.191Z,48.43
2023-05-17T09:30:52.350Z,47.86
2023-05-17T09:33:29.207Z,47.16
2023-05-17T09:35:56.132Z,47.13
2023-05-17T09:38:27.578Z,45.93
2023-05-17T09:40:56.430Z,44.49
2023-05-17T09:43:25.622Z,46.51
2023-05-17T09:46:01.123Z,44.73
2023-05-17T09:48:32.056Z,46.27
2023-05-17T09:50:58.604Z,46.32
2023-05-17T09:53:34.966Z,45.96
2023-05-17T09:56:06.131Z,46.31
2023-05-17T09:58:35.981Z,45.59
2023-05-17T10:01:11.289Z,45.93
2023-05-17T10:03:41.107Z,45.92
2023-05-17T10:06:23.807Z,45.10
2023-05-17T10:09:25.868Z,46.51
2023-05-17T10:11:57.874Z,45.36
2023-05-17T10:14:32.335Z,45.54
2023-05-17T10:17:03.632Z,44.12
2023-05-17T10:19:34.420Z,44.22
2023-05-17T10:22:14.752Z,42.77
2023-05-17T10:24:57.254Z,43.67
2023-05-17T10:27:23.956Z,43.08
2023-05-17T10:32:49.920Z,45.99
2023-05-17T10:35:20.117Z,44.03
2023-05-17T10:37:49.366Z,44.10
2023-05-17T10:40:24.666Z,44.25
2023-05-17T10:42:55.420Z,43.43
2023-05-17T10:45:25.522Z,43.71
2023-05-17T10:47:56.131Z,45.52
2023-05-17T10:50:29.115Z,44.60
2023-05-17T10:52:59.694Z,44.57
2023-05-17T10:55:40.194Z,43.33
2023-05-17T10:58:22.461Z,44.94
2023-05-17T11:01:01.728Z,44.66
2023-05-17T11:03:30.361Z,43.76
2023-05-17T11:09:17.978Z,45.62
2023-05-17T11:12:28.114Z,44.78
2023-05-17T11:14:55.264Z,44.99
2023-05-17T11:17:26.368Z,44.30
2023-05-17T11:19:52.971Z,43.63
2023-05-17T11:22:23.468Z,43.74
2023-05-17T11:25:01.466Z,42.70
2023-05-17T11:27:38.063Z,42.77
2023-05-17T11:30:21.978Z,44.58
2023-05-17T11:32:54.104Z,42.36
2023-05-17T11:35:26.452Z,42.11
2023-05-17T11:38:30.875Z,41.70
2023-05-17T11:43:49.978Z,42.41
2023-05-17T11:46:21.640Z,40.29
2023-05-17T11:48:52.769Z,39.68
2023-05-17T11:54:06.861Z,40.41
2023-05-17T11:59:17.924Z,41.70
2023-05-17T12:02:01.634Z,41.42
2023-05-17T12:04:40.447Z,41.66
2023-05-17T12:07:11.692Z,40.93
2023-05-17T12:09:45.187Z,41.22
2023-05-17T12:12:16.346Z,41.11
2023-05-17T12:14:45.747Z,42.32
2023-05-17T12:17:23.778Z,42.48
2023-05-17T12:19:56.534Z,42.46
2023-05-17T12:22:23.421Z,39.26
2023-05-17T12:24:49.944Z,39.12
2023-05-17T12:27:25.297Z,41.38
2023-05-17T12:29:51.812Z,41.34
2023-05-17T12:32:18.231Z,41.83
2023-05-17T12:34:48.265Z,41.00
2023-05-17T12:37:18.010Z,41.94
2023-05-17T12:42:33.442Z,41.91
2023-05-17T12:45:00.631Z,40.88
2023-05-17T12:47:36.441Z,41.00
2023-05-17T12:50:03.525Z,41.61
2023-05-17T12:52:36.836Z,39.78
2023-05-17T12:55:07.017Z,40.05
2023-05-17T12:57:35.753Z,40.65
2023-05-17T13:00:09.706Z,39.75
2023-05-17T13:02:36.593Z,39.61
2023-05-17T13:05:26.254Z,40.09
2023-05-17T13:07:53.334Z,39.51
2023-05-17T13:10:39.824Z,39.06
2023-05-17T13:13:19.482Z,39.32
2023-05-17T13:15:52.302Z,39.77
2023-05-17T13:18:24.660Z,39.64
2023-05-17T13:23:42.665Z,40.01
2023-05-17T13:26:09.158Z,40.33
2023-05-17T13:28:40.347Z,40.46
2023-05-17T13:31:06.857Z,40.57
2023-05-17T13:33:33.478Z,40.62
2023-05-17T13:36:04.006Z,40.53
2023-05-17T13:38:30.384Z,38.99
2023-05-17T13:40:56.768Z,39.23
2023-05-17T13:46:10.522Z,39.39
2023-05-17T13:48:37.778Z,39.57
2023-05-17T13:51:06.016Z,40.00
2023-05-17T13:53:37.930Z,40.31
2023-05-17T13:56:04.615Z,39.67
2023-05-17T13:58:36.033Z,40.95
2023-05-17T14:01:06.423Z,39.65
2023-05-17T14:03:38.623Z,39.43
2023-05-17T14:06:08.197Z,39.36
2023-05-17T14:08:38.218Z,39.50
2023-05-17T14:11:12.141Z,39.62
2023-05-17T14:13:41.389Z,41.34
2023-05-17T14:16:10.248Z,42.79
2023-05-17T14:18:37.360Z,40.82
2023-05-17T14:21:08.092Z,39.05
2023-05-17T14:23:37.518Z,39.02
2023-05-17T14:31:35.294Z,38.46
2023-05-17T14:34:03.648Z,39.70
2023-05-17T14:36:32.108Z,41.03
2023-05-17T14:39:05.050Z,41.83
2023-05-17T14:41:31.562Z,42.25
2023-05-17T14:43:58.008Z,41.52
2023-05-17T14:46:24.546Z,40.48
2023-05-17T14:48:52.327Z,39.67
2023-05-17T14:51:24.126Z,39.89
2023-05-17T14:53:54.247Z,39.21
2023-05-17T14:56:20.938Z,38.85
2023-05-17T14:58:56.908Z,39.71
2023-05-17T15:01:23.431Z,39.60
2023-05-17T15:03:53.772Z,39.82
2023-05-17T15:06:24.858Z,39.80
2023-05-17T15:08:54.661Z,39.32
2023-05-17T15:11:24.252Z,40.40
2023-05-17T15:13:53.158Z,41.24
2023-05-17T15:16:27.410Z,40.90
2023-05-17T15:18:55.521Z,41.45
2023-05-17T15:21:24.295Z,42.15
2023-05-17T15:23:51.077Z,42.61
2023-05-17T15:26:17.779Z,43.42
2023-05-17T15:28:47.514Z,43.36
2023-05-17T15:31:14.113Z,43.28
2023-05-17T15:33:43.322Z,42.93
2023-05-17T15:36:13.292Z,42.43
2023-05-17T15:38:43.613Z,43.66
2023-05-17T15:41:22.636Z,44.02
2023-05-17T15:43:56.752Z,43.85
2023-05-17T15:46:23.264Z,44.04
2023-05-17T15:48:49.786Z,43.91
2023-05-17T15:51:19.677Z,44.39
2023-05-17T15:53:48.925Z,43.96
2023-05-17T15:56:22.230Z,44.77
2023-05-17T15:58:52.474Z,44.53
2023-05-17T16:01:26.478Z,44.74
2023-05-17T16:03:53.029Z,44.05
2023-05-17T16:06:19.769Z,43.56
2023-05-17T16:08:49.635Z,44.63
2023-05-17T16:11:16.074Z,45.16
2023-05-17T16:13:42.972Z,45.53
2023-05-17T16:16:14.509Z,45.68
2023-05-17T16:18:41.161Z,46.46
2023-05-17T16:21:08.143Z,46.66
2023-05-17T16:23:37.925Z,47.23
2023-05-17T16:26:04.735Z,48.52
2023-05-17T16:28:32.311Z,48.24
2023-05-17T16:31:08.033Z,47.37
2023-05-17T16:33:34.732Z,47.41
2023-05-17T16:36:12.303Z,48.51
2023-05-17T16:38:42.289Z,48.74
2023-05-17T16:41:16.326Z,49.56
2023-05-17T16:43:46.153Z,49.20
2023-05-17T16:46:15.473Z,49.22
2023-05-17T16:48:42.217Z,49.28
2023-05-17T16:51:12.836Z,48.16
2023-05-17T16:53:42.368Z,48.88
2023-05-17T16:58:54.187Z,49.76
2023-05-17T17:01:24.512Z,50.00
2023-05-17T17:03:51.151Z,50.41
2023-05-17T17:06:20.548Z,50.51
2023-05-17T17:08:50.136Z,50.36
2023-05-17T17:11:24.810Z,50.52
2023-05-17T17:13:51.257Z,50.85
2023-05-17T17:16:18.042Z,50.34
2023-05-17T17:18:53.313Z,50.48
2023-05-17T17:21:19.815Z,50.22
2023-05-17T17:23:46.811Z,50.88
2023-05-17T17:26:13.404Z,51.23
2023-05-17T17:28:44.038Z,51.67
2023-05-17T17:31:13.163Z,52.01
2023-05-17T17:33:42.603Z,52.90
2023-05-17T17:36:13.232Z,52.76
2023-05-17T17:38:39.744Z,52.48
2023-05-17T17:41:06.339Z,52.97
2023-05-17T17:43:32.704Z,53.31
2023-05-17T17:45:59.319Z,53.66
2023-05-17T17:48:26.005Z,54.05
2023-05-17T17:50:56.594Z,53.81
2023-05-17T17:53:36.230Z,54.18
2023-05-17T17:56:02.986Z,53.72
2023-05-17T17:58:30.719Z,53.99
2023-05-17T18:00:57.287Z,53.99
2023-05-17T18:03:23.788Z,54.64
2023-05-17T18:05:53.697Z,54.91
2023-05-17T18:08:22.870Z,55.48
2023-05-17T18:10:56.580Z,55.44
2023-05-17T18:13:25.795Z,55.21
2023-05-17T18:15:52.233Z,55.38
2023-05-17T18:18:18.959Z,55.13
2023-05-17T18:20:49.243Z,55.02
2023-05-17T18:23:15.686Z,55.07
2023-05-17T18:25:54.182Z,55.41
2023-05-17T18:28:38.242Z,55.43
2023-05-17T18:31:08.626Z,55.44
2023-05-17T18:33:35.131Z,55.92
2023-05-17T18:36:01.769Z,55.79
2023-05-17T18:38:32.486Z,56.15
2023-05-17T18:40:58.944Z,55.91
2023-05-17T18:43:25.307Z,55.96
2023-05-17T18:45:54.331Z,56.27
2023-05-17T18:48:23.810Z,56.26
2023-05-17T18:50:50.320Z,56.64
2023-05-17T18:53:17.149Z,56.68
2023-05-17T18:55:51.001Z,57.21
2023-05-17T18:58:20.584Z,57.21
2023-05-17T19:00:49.968Z,57.21
2023-05-17T19:03:16.406Z,57.57
2023-05-17T19:05:46.076Z,57.67
2023-05-17T19:08:15.867Z,58.27
2023-05-17T19:10:42.369Z,58.58
2023-05-17T19:13:15.972Z,58.87
2023-05-17T19:15:42.458Z,59.45
2023-05-17T19:18:13.973Z,59.63
2023-05-17T19:20:43.500Z,60.07
2023-05-17T19:23:13.255Z,60.47
2023-05-17T19:25:39.978Z,60.81
2023-05-17T19:28:10.476Z,61.24
2023-05-17T19:30:40.789Z,61.36
2023-05-17T19:33:11.788Z,61.47
2023-05-17T19:35:44.807Z,61.58
2023-05-17T19:38:11.339Z,61.99
2023-05-17T19:40:46.512Z,62.33
2023-05-17T19:43:16.019Z,62.53
2023-05-17T19:45:44.460Z,62.90
2023-05-17T19:48:11.987Z,63.08
2023-05-17T19:50:38.520Z,63.42
2023-05-17T19:53:05.009Z,63.67
2023-05-17T19:55:43.680Z,63.66
2023-05-17T19:58:11.424Z,64.19
2023-05-17T20:00:43.926Z,64.52
2023-05-17T20:03:10.637Z,64.50
2023-05-17T20:05:41.136Z,64.70
2023-05-17T20:08:09.798Z,65.14
2023-05-17T20:13:29.978Z,65.34
2023-05-17T20:15:56.520Z,65.66
2023-05-17T20:18:25.399Z,65.80
2023-05-17T20:20:55.908Z,66.41
2023-05-17T20:23:30.470Z,66.82
2023-05-17T20:25:56.885Z,66.95
2023-05-17T20:28:23.333Z,67.46
2023-05-17T20:30:53.275Z,67.33
2023-05-17T20:33:26.446Z,67.50
2023-05-17T20:35:56.389Z,67.72
2023-05-17T20:38:25.688Z,67.88
2023-05-17T20:40:54.866Z,67.98
2023-05-17T20:43:28.599Z,68.22
2023-05-17T20:45:57.993Z,68.07
2023-05-17T20:48:24.671Z,68.37
2023-05-17T20:50:51.499Z,68.25
2023-05-17T20:53:17.965Z,67.50
2023-05-17T20:55:49.356Z,67.87
2023-05-17T20:58:15.880Z,67.85
2023-05-17T21:00:42.737Z,68.31
2023-05-17T21:03:19.167Z,67.87
2023-05-17T21:05:48.659Z,68.02
2023-05-17T21:08:20.039Z,68.11
2023-05-17T21:10:47.048Z,67.58
2023-05-17T21:13:16.603Z,68.10
2023-05-17T21:15:46.473Z,68.39
2023-05-17T21:18:12.985Z,68.49
2023-05-17T21:20:51.711Z,68.87
2023-05-17T21:23:28.634Z,68.70
2023-05-17T21:25:55.092Z,68.61
2023-05-17T21:28:23.072Z,69.40
2023-05-17T21:30:49.593Z,69.04
2023-05-17T21:33:20.268Z,69.34
2023-05-17T21:36:05.127Z,69.77
2023-05-17T21:38:36.716Z,69.44
2023-05-17T21:41:03.126Z,69.47
2023-05-17T21:46:17.886Z,69.82
2023-05-17T21:48:44.495Z,70.22
2023-05-17T21:51:11.859Z,70.66
2023-05-17T21:53:41.183Z,70.28
2023-05-17T21:56:11.269Z,70.62
2023-05-17T21:58:39.045Z,70.77
2023-05-17T22:01:11.462Z,70.99
2023-05-17T22:03:38.023Z,71.27
2023-05-17T22:06:09.462Z,71.42
2023-05-17T22:08:36.016Z,71.54
2023-05-17T22:11:02.399Z,71.72
2023-05-17T22:13:32.610Z,71.76
2023-05-17T22:15:59.220Z,72.14
2023-05-17T22:18:27.026Z,71.91
2023-05-17T22:21:02.524Z,71.64
2023-05-17T22:23:29.019Z,71.46
2023-05-17T22:25:57.109Z,71.54
2023-05-17T22:28:27.113Z,71.84
2023-05-17T22:30:54.119Z,71.75
2023-05-17T22:33:23.563Z,71.89
2023-05-17T22:35:54.007Z,72.48
2023-05-17T22:38:30.623Z,72.01
2023-05-17T22:40:57.048Z,72.72
2023-05-17T22:43:34.949Z,72.80
2023-05-17T22:46:01.582Z,73.39
2023-05-17T22:48:32.085Z,73.15
2023-05-17T22:51:01.274Z,73.38
2023-05-17T22:53:38.985Z,73.91
2023-05-17T22:56:06.363Z,73.51
2023-05-17T22:58:36.839Z,74.17
2023-05-17T23:01:06.237Z,73.93
2023-05-17T23:03:32.766Z,74.52
2023-05-17T23:06:10.430Z,74.17
2023-05-17T23:11:24.589Z,74.87
2023-05-17T23:13:53.827Z,75.72
2023-05-17T23:19:06.204Z,75.50
2023-05-17T23:21:36.618Z,75.34
2023-05-17T23:24:03.050Z,76.11
2023-05-17T23:26:37.823Z,76.00
2023-05-17T23:29:05.447Z,75.55
2023-05-17T23:31:45.604Z,76.13
2023-05-17T23:34:25.097Z,76.71
2023-05-17T23:36:51.571Z,76.83
2023-05-17T23:39:26.942Z,76.99
2023-05-17T23:41:53.495Z,77.60
2023-05-17T23:44:22.979Z,77.30
2023-05-17T23:46:54.844Z,76.94
2023-05-17T23:49:27.439Z,77.00
2023-05-17T23:51:53.980Z,77.43
2023-05-17T23:54:21.440Z,77.77
2023-05-17T23:56:49.274Z,77.74
2023-05-17T23:59:18.424Z,77.80
